sensor_id;sensor_type;location;lat;lon;timestamp;pressure;altitude;pressure_sealevel;temperature;humidity
70815;BME280;58428;49.478;10.986;2023-02-12T00:01:06;100389.41;;;5.86;100.00
70815;BME280;58428;49.478;10.986;2023-02-12T00:03:32;100388.41;;;5.92;100.00
70815;BME280;58428;49.478;10.986;2023-02-12T00:06:00;100389.25;;;5.92;100.00
70815;BME280;58428;49.478;10.986;2023-02-12T00:08:28;100386.28;;;5.94;100.00
70815;BME280;58428;49.478;10.986;2023-02-12T00:10:54;100383.75;;;5.83;100.00
70815;BME280;58428;49.478;10.986;2023-02-12T00:13:19;100385.16;;;5.90;100.00
70815;BME280;58428;49.478;10.986;2023-02-12T00:15:44;100390.94;;;5.98;100.00
70815;BME280;58428;49.478;10.986;2023-02-12T00:18:10;100384.69;;;5.93;100.00
70815;BME280;58428;49.478;10.986;2023-02-12T00:20:36;100385.00;;;5.96;100.00
70815;BME280;58428;49.478;10.986;2023-02-12T00:23:04;100387.16;;;5.99;100.00
70815;BME280;58428;49.478;10.986;2023-02-12T00:25:31;100392.53;;;5.99;100.00
70815;BME280;58428;49.478;10.986;2023-02-12T00:27:56;100395.56;;;6.03;100.00
70815;BME280;58428;49.478;10.986;2023-02-12T00:30:21;100384.34;;;5.89;100.00
70815;BME280;58428;49.478;10.986;2023-02-12T00:32:50;100390.38;;;5.96;100.00
70815;BME280;58428;49.478;10.986;2023-02-12T00:35:16;100392.50;;;5.94;100.00
70815;BME280;58428;49.478;10.986;2023-02-12T00:37:42;100395.47;;;5.98;100.00
70815;BME280;58428;49.478;10.986;2023-02-12T00:40:08;100400.13;;;6.02;100.00
70815;BME280;58428;49.478;10.986;2023-02-12T00:42:33;100394.19;;;6.00;100.00
70815;BME280;58428;49.478;10.986;2023-02-12T00:44:59;100394.66;;;5.97;100.00
70815;BME280;58428;49.478;10.986;2023-02-12T00:47:28;100389.38;;;6.02;100.00
70815;BME280;58428;49.478;10.986;2023-02-12T00:49:53;100395.88;;;6.06;100.00
70815;BME280;58428;49.478;10.986;2023-02-12T00:52:20;100397.81;;;6.11;100.00
70815;BME280;58428;49.478;10.986;2023-02-12T00:54:45;100390.31;;;6.13;100.00
70815;BME280;58428;49.478;10.986;2023-02-12T00:57:11;100391.63;;;6.10;100.00
70815;BME280;58428;49.478;10.986;2023-02-12T00:59:37;100395.75;;;5.96;100.00
70815;BME280;58428;49.478;10.986;2023-02-12T01:02:04;100409.00;;;6.03;100.00
70815;BME280;58428;49.478;10.986;2023-02-12T01:04:30;100400.38;;;6.01;100.00
70815;BME280;58428;49.478;10.986;2023-02-12T01:06:56;100402.72;;;5.97;100.00
70815;BME280;58428;49.478;10.986;2023-02-12T01:09:21;100404.19;;;6.05;100.00
70815;BME280;58428;49.478;10.986;2023-02-12T01:11:48;100389.44;;;6.07;100.00
70815;BME280;58428;49.478;10.986;2023-02-12T01:14:15;100398.81;;;6.05;100.00
70815;BME280;58428;49.478;10.986;2023-02-12T01:16:42;100392.13;;;6.07;100.00
70815;BME280;58428;49.478;10.986;2023-02-12T01:19:09;100392.94;;;6.08;100.00
70815;BME280;58428;49.478;10.986;2023-02-12T01:21:35;100392.59;;;5.83;100.00
70815;BME280;58428;49.478;10.986;2023-02-12T01:24:01;100396.34;;;5.82;100.00
70815;BME280;58428;49.478;10.986;2023-02-12T01:26:29;100386.81;;;5.91;100.00
70815;BME280;58428;49.478;10.986;2023-02-12T01:28:56;100395.78;;;6.01;100.00
70815;BME280;58428;49.478;10.986;2023-02-12T01:31:25;100392.13;;;6.07;100.00
70815;BME280;58428;49.478;10.986;2023-02-12T01:33:52;100393.31;;;5.95;100.00
70815;BME280;58428;49.478;10.986;2023-02-12T01:36:19;100404.38;;;5.98;100.00
70815;BME280;58428;49.478;10.986;2023-02-12T01:38:46;100402.53;;;6.04;100.00
70815;BME280;58428;49.478;10.986;2023-02-12T01:41:15;100394.84;;;5.91;100.00
70815;BME280;58428;49.478;10.986;2023-02-12T01:43:41;100391.31;;;5.69;100.00
70815;BME280;58428;49.478;10.986;2023-02-12T01:46:09;100392.75;;;5.77;100.00
70815;BME280;58428;49.478;10.986;2023-02-12T01:48:39;100385.22;;;5.74;100.00
70815;BME280;58428;49.478;10.986;2023-02-12T01:51:08;100377.22;;;5.79;100.00
70815;BME280;58428;49.478;10.986;2023-02-12T01:53:40;100377.78;;;5.81;100.00
70815;BME280;58428;49.478;10.986;2023-02-12T01:56:07;100378.59;;;5.81;100.00
70815;BME280;58428;49.478;10.986;2023-02-12T01:58:38;100385.03;;;5.80;100.00
70815;BME280;58428;49.478;10.986;2023-02-12T02:01:07;100381.63;;;5.85;100.00
70815;BME280;58428;49.478;10.986;2023-02-12T02:03:37;100384.34;;;5.89;100.00
70815;BME280;58428;49.478;10.986;2023-02-12T02:06:24;100382.00;;;5.93;100.00
70815;BME280;58428;49.478;10.986;2023-02-12T02:08:53;100381.56;;;6.01;100.00
70815;BME280;58428;49.478;10.986;2023-02-12T02:11:19;100383.72;;;6.04;100.00
70815;BME280;58428;49.478;10.986;2023-02-12T02:14:03;100380.00;;;6.05;100.00
70815;BME280;58428;49.478;10.986;2023-02-12T02:16:56;100375.81;;;5.92;100.00
70815;BME280;58428;49.478;10.986;2023-02-12T02:19:49;100382.03;;;5.98;100.00
70815;BME280;58428;49.478;10.986;2023-02-12T02:22:32;100366.47;;;6.00;100.00
70815;BME280;58428;49.478;10.986;2023-02-12T02:33:26;100378.63;;;6.02;100.00
70815;BME280;58428;49.478;10.986;2023-02-12T02:36:06;100377.78;;;6.02;100.00
70815;BME280;58428;49.478;10.986;2023-02-12T02:38:47;100386.38;;;5.99;100.00
70815;BME280;58428;49.478;10.986;2023-02-12T02:41:50;100379.63;;;5.96;100.00
70815;BME280;58428;49.478;10.986;2023-02-12T02:44:57;100379.69;;;6.01;100.00
70815;BME280;58428;49.478;10.986;2023-02-12T02:47:27;100378.88;;;6.01;100.00
70815;BME280;58428;49.478;10.986;2023-02-12T02:50:00;100395.31;;;6.04;100.00
70815;BME280;58428;49.478;10.986;2023-02-12T02:52:34;100397.59;;;5.96;100.00
70815;BME280;58428;49.478;10.986;2023-02-12T02:55:05;100395.78;;;6.01;100.00
70815;BME280;58428;49.478;10.986;2023-02-12T02:57:38;100401.25;;;6.06;100.00
70815;BME280;58428;49.478;10.986;2023-02-12T03:00:16;100391.88;;;6.09;100.00
70815;BME280;58428;49.478;10.986;2023-02-12T03:02:49;100395.03;;;6.06;100.00
70815;BME280;58428;49.478;10.986;2023-02-12T03:05:23;100395.69;;;6.13;100.00
70815;BME280;58428;49.478;10.986;2023-02-12T03:08:10;100405.09;;;6.15;100.00
70815;BME280;58428;49.478;10.986;2023-02-12T03:10:47;100402.28;;;6.05;100.00
70815;BME280;58428;49.478;10.986;2023-02-12T03:13:31;100398.88;;;5.88;100.00
70815;BME280;58428;49.478;10.986;2023-02-12T03:16:08;100403.72;;;5.91;100.00
70815;BME280;58428;49.478;10.986;2023-02-12T03:18:44;100410.97;;;5.91;100.00
70815;BME280;58428;49.478;10.986;2023-02-12T03:21:20;100408.31;;;5.75;100.00
70815;BME280;58428;49.478;10.986;2023-02-12T03:23:57;100408.88;;;5.77;100.00
70815;BME280;58428;49.478;10.986;2023-02-12T03:26:33;100408.78;;;5.72;100.00
70815;BME280;58428;49.478;10.986;2023-02-12T03:29:02;100412.31;;;5.72;100.00
70815;BME280;58428;49.478;10.986;2023-02-12T03:31:37;100407.03;;;5.77;100.00
70815;BME280;58428;49.478;10.986;2023-02-12T03:37:04;100414.25;;;5.77;100.00
70815;BME280;58428;49.478;10.986;2023-02-12T03:40:26;100410.00;;;5.81;100.00
70815;BME280;58428;49.478;10.986;2023-02-12T03:42:50;100406.66;;;5.90;100.00
70815;BME280;58428;49.478;10.986;2023-02-12T03:48:20;100415.66;;;5.79;100.00
70815;BME280;58428;49.478;10.986;2023-02-12T03:50:47;100417.88;;;5.71;100.00
70815;BME280;58428;49.478;10.986;2023-02-12T03:53:15;100420.94;;;5.74;100.00
70815;BME280;58428;49.478;10.986;2023-02-12T03:55:42;100420.69;;;5.76;100.00
70815;BME280;58428;49.478;10.986;2023-02-12T03:58:13;100420.56;;;5.71;100.00
70815;BME280;58428;49.478;10.986;2023-02-12T04:00:41;100419.88;;;5.75;100.00
70815;BME280;58428;49.478;10.986;2023-02-12T04:03:08;100422.94;;;5.84;100.00
70815;BME280;58428;49.478;10.986;2023-02-12T04:05:35;100419.22;;;5.85;100.00
70815;BME280;58428;49.478;10.986;2023-02-12T04:08:03;100428.31;;;5.84;100.00
70815;BME280;58428;49.478;10.986;2023-02-12T04:14:12;100431.25;;;5.82;100.00
70815;BME280;58428;49.478;10.986;2023-02-12T04:16:53;100426.53;;;5.73;100.00
70815;BME280;58428;49.478;10.986;2023-02-12T04:27:59;100428.88;;;5.86;100.00
70815;BME280;58428;49.478;10.986;2023-02-12T04:30:34;100431.09;;;5.88;100.00
70815;BME280;58428;49.478;10.986;2023-02-12T04:33:03;100431.56;;;5.86;100.00
70815;BME280;58428;49.478;10.986;2023-02-12T04:38:11;100432.88;;;5.83;100.00
70815;BME280;58428;49.478;10.986;2023-02-12T04:40:45;100429.41;;;5.83;100.00
70815;BME280;58428;49.478;10.986;2023-02-12T04:43:16;100432.56;;;5.80;100.00
70815;BME280;58428;49.478;10.986;2023-02-12T04:45:59;100428.88;;;5.86;100.00
70815;BME280;58428;49.478;10.986;2023-02-12T04:48:24;100442.13;;;5.92;100.00
70815;BME280;58428;49.478;10.986;2023-02-12T04:50:51;100442.22;;;5.97;100.00
70815;BME280;58428;49.478;10.986;2023-02-12T04:53:16;100442.47;;;5.95;100.00
70815;BME280;58428;49.478;10.986;2023-02-12T04:55:44;100442.69;;;5.94;100.00
70815;BME280;58428;49.478;10.986;2023-02-12T04:58:15;100450.47;;;5.90;100.00
70815;BME280;58428;49.478;10.986;2023-02-12T05:00:40;100448.16;;;5.99;100.00
70815;BME280;58428;49.478;10.986;2023-02-12T05:03:05;100441.78;;;6.05;100.00
70815;BME280;58428;49.478;10.986;2023-02-12T05:05:31;100444.28;;;6.11;100.00
70815;BME280;58428;49.478;10.986;2023-02-12T05:07:57;100442.16;;;6.13;100.00
70815;BME280;58428;49.478;10.986;2023-02-12T05:10:23;100440.81;;;6.11;100.00
70815;BME280;58428;49.478;10.986;2023-02-12T05:12:55;100441.78;;;6.05;100.00
70815;BME280;58428;49.478;10.986;2023-02-12T05:15:21;100439.19;;;6.10;100.00
70815;BME280;58428;49.478;10.986;2023-02-12T05:17:47;100442.91;;;6.09;100.00
70815;BME280;58428;49.478;10.986;2023-02-12T05:20:13;100441.03;;;6.09;100.00
70815;BME280;58428;49.478;10.986;2023-02-12T05:22:42;100442.44;;;6.12;100.00
70815;BME280;58428;49.478;10.986;2023-02-12T05:25:07;100445.69;;;6.14;100.00
70815;BME280;58428;49.478;10.986;2023-02-12T05:27:33;100440.31;;;6.14;100.00
70815;BME280;58428;49.478;10.986;2023-02-12T05:29:58;100440.88;;;6.16;100.00
70815;BME280;58428;49.478;10.986;2023-02-12T05:32:25;100443.84;;;6.19;100.00
70815;BME280;58428;49.478;10.986;2023-02-12T05:34:51;100449.50;;;6.18;100.00
70815;BME280;58428;49.478;10.986;2023-02-12T05:37:17;100446.75;;;6.13;100.00
70815;BME280;58428;49.478;10.986;2023-02-12T05:39:43;100447.16;;;6.05;100.00
70815;BME280;58428;49.478;10.986;2023-02-12T05:42:09;100456.53;;;6.02;100.00
70815;BME280;58428;49.478;10.986;2023-02-12T05:44:34;100454.09;;;6.01;100.00
70815;BME280;58428;49.478;10.986;2023-02-12T05:47:02;100448.53;;;6.07;100.00
70815;BME280;58428;49.478;10.986;2023-02-12T05:49:28;100446.69;;;6.08;100.00
70815;BME280;58428;49.478;10.986;2023-02-12T05:51:53;100462.53;;;6.09;100.00
70815;BME280;58428;49.478;10.986;2023-02-12T05:54:19;100466.78;;;6.05;100.00
70815;BME280;58428;49.478;10.986;2023-02-12T05:56:46;100469.13;;;6.02;100.00
70815;BME280;58428;49.478;10.986;2023-02-12T05:59:16;100471.22;;;5.95;100.00
70815;BME280;58428;49.478;10.986;2023-02-12T06:01:43;100469.66;;;5.99;100.00
70815;BME280;58428;49.478;10.986;2023-02-12T06:04:15;100472.75;;;5.91;100.00
70815;BME280;58428;49.478;10.986;2023-02-12T06:06:41;100470.63;;;5.77;100.00
70815;BME280;58428;49.478;10.986;2023-02-12T06:09:07;100470.97;;;5.80;100.00
70815;BME280;58428;49.478;10.986;2023-02-12T06:11:33;100465.94;;;5.84;100.00
70815;BME280;58428;49.478;10.986;2023-02-12T06:14:06;100471.44;;;5.93;100.00
70815;BME280;58428;49.478;10.986;2023-02-12T06:16:33;100480.41;;;5.99;100.00
70815;BME280;58428;49.478;10.986;2023-02-12T06:19:03;100475.34;;;6.02;100.00
70815;BME280;58428;49.478;10.986;2023-02-12T06:21:29;100468.91;;;6.03;100.00
70815;BME280;58428;49.478;10.986;2023-02-12T06:23:54;100476.63;;;6.00;100.00
70815;BME280;58428;49.478;10.986;2023-02-12T06:26:21;100475.13;;;5.71;100.00
70815;BME280;58428;49.478;10.986;2023-02-12T06:28:49;100480.25;;;5.73;100.00
70815;BME280;58428;49.478;10.986;2023-02-12T06:31:26;100480.38;;;5.66;100.00
70815;BME280;58428;49.478;10.986;2023-02-12T06:33:54;100478.53;;;5.50;100.00
70815;BME280;58428;49.478;10.986;2023-02-12T06:36:20;100481.78;;;5.52;100.00
70815;BME280;58428;49.478;10.986;2023-02-12T06:38:46;100479.91;;;5.53;100.00
70815;BME280;58428;49.478;10.986;2023-02-12T06:41:12;100484.56;;;5.57;100.00
70815;BME280;58428;49.478;10.986;2023-02-12T06:43:39;100489.94;;;5.74;100.00
70815;BME280;58428;49.478;10.986;2023-02-12T06:46:06;100493.34;;;5.86;100.00
70815;BME280;58428;49.478;10.986;2023-02-12T06:48:37;100503.69;;;5.93;100.00
70815;BME280;58428;49.478;10.986;2023-02-12T06:51:09;100514.56;;;6.03;100.00
70815;BME280;58428;49.478;10.986;2023-02-12T06:53:35;100515.22;;;6.10;100.00
70815;BME280;58428;49.478;10.986;2023-02-12T06:56:02;100515.13;;;6.05;100.00
70815;BME280;58428;49.478;10.986;2023-02-12T06:58:29;100517.97;;;6.15;100.00
70815;BME280;58428;49.478;10.986;2023-02-12T07:00:54;100512.44;;;6.22;100.00
70815;BME280;58428;49.478;10.986;2023-02-12T07:03:20;100510.38;;;6.28;100.00
70815;BME280;58428;49.478;10.986;2023-02-12T07:05:48;100515.75;;;6.28;100.00
70815;BME280;58428;49.478;10.986;2023-02-12T07:08:14;100525.13;;;6.26;100.00
70815;BME280;58428;49.478;10.986;2023-02-12T07:10:40;100533.25;;;6.31;100.00
70815;BME280;58428;49.478;10.986;2023-02-12T07:13:05;100533.22;;;6.10;100.00
70815;BME280;58428;49.478;10.986;2023-02-12T07:15:30;100533.22;;;6.10;100.00
70815;BME280;58428;49.478;10.986;2023-02-12T07:17:58;100525.00;;;6.00;100.00
70815;BME280;58428;49.478;10.986;2023-02-12T07:20:24;100530.47;;;6.05;100.00
70815;BME280;58428;49.478;10.986;2023-02-12T07:22:49;100530.78;;;5.92;100.00
70815;BME280;58428;49.478;10.986;2023-02-12T07:25:15;100540.88;;;6.01;100.00
70815;BME280;58428;49.478;10.986;2023-02-12T07:27:40;100539.31;;;6.05;100.00
70815;BME280;58428;49.478;10.986;2023-02-12T07:30:06;100533.47;;;6.08;100.00
70815;BME280;58428;49.478;10.986;2023-02-12T07:32:35;100536.06;;;6.20;100.00
70815;BME280;58428;49.478;10.986;2023-02-12T07:35:01;100533.19;;;6.26;100.00
70815;BME280;58428;49.478;10.986;2023-02-12T07:37:26;100539.13;;;6.28;100.00
70815;BME280;58428;49.478;10.986;2023-02-12T07:39:52;100536.59;;;6.38;100.00
70815;BME280;58428;49.478;10.986;2023-02-12T07:42:18;100543.66;;;6.44;100.00
70815;BME280;58428;49.478;10.986;2023-02-12T07:44:44;100544.50;;;6.28;100.00
70815;BME280;58428;49.478;10.986;2023-02-12T07:47:14;100541.03;;;6.27;100.00
70815;BME280;58428;49.478;10.986;2023-02-12T07:49:42;100533.09;;;6.21;100.00
70815;BME280;58428;49.478;10.986;2023-02-12T07:52:08;100536.44;;;6.28;100.00
70815;BME280;58428;49.478;10.986;2023-02-12T07:54:34;100542.00;;;6.22;100.00
70815;BME280;58428;49.478;10.986;2023-02-12T07:56:59;100545.50;;;6.22;100.00
70815;BME280;58428;49.478;10.986;2023-02-12T07:59:26;100542.91;;;6.11;100.00
70815;BME280;58428;49.478;10.986;2023-02-12T08:01:53;100540.47;;;6.09;100.00
70815;BME280;58428;49.478;10.986;2023-02-12T08:04:21;100540.13;;;6.06;100.00
70815;BME280;58428;49.478;10.986;2023-02-12T08:06:50;100540.47;;;6.09;100.00
70815;BME280;58428;49.478;10.986;2023-02-12T08:09:23;100540.94;;;6.22;100.00
70815;BME280;58428;49.478;10.986;2023-02-12T08:11:51;100549.59;;;6.46;100.00
70815;BME280;58428;49.478;10.986;2023-02-12T08:14:19;100549.13;;;6.49;100.00
70815;BME280;58428;49.478;10.986;2023-02-12T08:16:48;100552.13;;;6.73;100.00
70815;BME280;58428;49.478;10.986;2023-02-12T08:19:16;100558.38;;;6.79;100.00
70815;BME280;58428;49.478;10.986;2023-02-12T08:21:42;100558.50;;;6.67;100.00
70815;BME280;58428;49.478;10.986;2023-02-12T08:24:10;100562.44;;;6.81;100.00
70815;BME280;58428;49.478;10.986;2023-02-12T08:26:38;100560.84;;;7.01;100.00
70815;BME280;58428;49.478;10.986;2023-02-12T08:29:10;100553.50;;;7.18;100.00
70815;BME280;58428;49.478;10.986;2023-02-12T08:31:38;100553.72;;;7.38;100.00
70815;BME280;58428;49.478;10.986;2023-02-12T08:34:06;100550.66;;;7.56;100.00
70815;BME280;58428;49.478;10.986;2023-02-12T08:36:38;100542.41;;;7.67;100.00
70815;BME280;58428;49.478;10.986;2023-02-12T08:39:07;100547.41;;;7.85;100.00
70815;BME280;58428;49.478;10.986;2023-02-12T08:41:39;100538.00;;;7.87;100.00
70815;BME280;58428;49.478;10.986;2023-02-12T08:44:11;100537.59;;;7.69;100.00
70815;BME280;58428;49.478;10.986;2023-02-12T08:46:39;100541.31;;;7.63;100.00
70815;BME280;58428;49.478;10.986;2023-02-12T08:49:10;100545.34;;;7.61;100.00
70815;BME280;58428;49.478;10.986;2023-02-12T08:51:38;100535.13;;;7.68;100.00
70815;BME280;58428;49.478;10.986;2023-02-12T08:54:09;100539.97;;;7.66;100.00
70815;BME280;58428;49.478;10.986;2023-02-12T08:56:37;100538.94;;;7.71;100.00
70815;BME280;58428;49.478;10.986;2023-02-12T08:59:04;100531.50;;;7.52;100.00
70815;BME280;58428;49.478;10.986;2023-02-12T09:01:36;100540.38;;;7.53;100.00
70815;BME280;58428;49.478;10.986;2023-02-12T09:04:04;100551.94;;;7.48;100.00
70815;BME280;58428;49.478;10.986;2023-02-12T09:06:31;100544.41;;;7.50;100.00
70815;BME280;58428;49.478;10.986;2023-02-12T09:08:57;100555.31;;;7.39;100.00
70815;BME280;58428;49.478;10.986;2023-02-12T09:11:26;100556.44;;;7.17;100.00
70815;BME280;58428;49.478;10.986;2023-02-12T09:14:01;100553.50;;;7.18;100.00
70815;BME280;58428;49.478;10.986;2023-02-12T09:16:29;100552.34;;;7.35;100.00
70815;BME280;58428;49.478;10.986;2023-02-12T09:18:56;100554.94;;;7.52;100.00
70815;BME280;58428;49.478;10.986;2023-02-12T09:21:22;100554.47;;;7.60;100.00
70815;BME280;58428;49.478;10.986;2023-02-12T09:23:48;100553.78;;;7.74;100.00
70815;BME280;58428;49.478;10.986;2023-02-12T09:26:17;100553.84;;;7.79;100.00
70815;BME280;58428;49.478;10.986;2023-02-12T09:28:45;100559.84;;;7.60;100.00
70815;BME280;58428;49.478;10.986;2023-02-12T09:31:15;100562.19;;;7.25;100.00
70815;BME280;58428;49.478;10.986;2023-02-12T09:33:45;100562.78;;;7.58;100.00
70815;BME280;58428;49.478;10.986;2023-02-12T09:36:13;100565.94;;;7.76;100.00
70815;BME280;58428;49.478;10.986;2023-02-12T09:38:40;100566.66;;;7.98;100.00
70815;BME280;58428;49.478;10.986;2023-02-12T09:50:05;100560.59;;;8.12;100.00
70815;BME280;58428;49.478;10.986;2023-02-12T09:52:37;100561.38;;;7.82;100.00
70815;BME280;58428;49.478;10.986;2023-02-12T09:55:04;100565.34;;;8.01;100.00
70815;BME280;58428;49.478;10.986;2023-02-12T09:57:32;100568.84;;;8.01;100.00
70815;BME280;58428;49.478;10.986;2023-02-12T10:00:29;100567.94;;;7.91;100.00
70815;BME280;58428;49.478;10.986;2023-02-12T10:03:03;100566.75;;;8.08;100.00
70815;BME280;58428;49.478;10.986;2023-02-12T10:05:40;100568.38;;;8.40;100.00
70815;BME280;58428;49.478;10.986;2023-02-12T10:11:20;100562.59;;;8.68;100.00
70815;BME280;58428;49.478;10.986;2023-02-12T10:28:10;100566.56;;;8.55;100.00
70815;BME280;58428;49.478;10.986;2023-02-12T10:30:44;100568.63;;;8.84;100.00
70815;BME280;58428;49.478;10.986;2023-02-12T10:33:33;100570.69;;;8.73;100.00
70815;BME280;58428;49.478;10.986;2023-02-12T10:36:44;100563.16;;;8.70;100.00
70815;BME280;58428;49.478;10.986;2023-02-12T10:41:53;100562.50;;;8.48;100.00
70815;BME280;58428;49.478;10.986;2023-02-12T10:44:23;100563.91;;;8.60;100.00
70815;BME280;58428;49.478;10.986;2023-02-12T10:46:49;100560.41;;;8.65;100.00
70815;BME280;58428;49.478;10.986;2023-02-12T10:49:17;100554.69;;;8.56;100.00
70815;BME280;58428;49.478;10.986;2023-02-12T10:54:37;100567.59;;;8.49;100.00
70815;BME280;58428;49.478;10.986;2023-02-12T10:57:18;100562.81;;;8.15;100.00
70815;BME280;58428;49.478;10.986;2023-02-12T10:59:45;100555.19;;;8.48;100.00
70815;BME280;58428;49.478;10.986;2023-02-12T11:02:22;100561.94;;;8.46;100.00
70815;BME280;58428;49.478;10.986;2023-02-12T11:04:50;100565.00;;;8.59;100.00
70815;BME280;58428;49.478;10.986;2023-02-12T11:07:16;100556.41;;;8.67;100.00
70815;BME280;58428;49.478;10.986;2023-02-12T11:09:43;100566.00;;;8.53;100.00
70815;BME280;58428;49.478;10.986;2023-02-12T11:14:55;100563.78;;;8.45;100.00
70815;BME280;58428;49.478;10.986;2023-02-12T11:17:36;100559.09;;;8.67;100.00
70815;BME280;58428;49.478;10.986;2023-02-12T11:20:14;100553.34;;;8.54;100.00
70815;BME280;58428;49.478;10.986;2023-02-12T11:22:54;100548.25;;;8.62;100.00
70815;BME280;58428;49.478;10.986;2023-02-12T11:25:22;100557.91;;;8.48;100.00
70815;BME280;58428;49.478;10.986;2023-02-12T11:28:15;100553.44;;;8.28;100.00
70815;BME280;58428;49.478;10.986;2023-02-12T11:33:37;100552.25;;;8.55;100.00
70815;BME280;58428;49.478;10.986;2023-02-12T11:36:18;100550.50;;;8.80;100.00
70815;BME280;58428;49.478;10.986;2023-02-12T11:38:49;100546.25;;;8.94;100.00
70815;BME280;58428;49.478;10.986;2023-02-12T11:41:39;100559.78;;;9.04;100.00
70815;BME280;58428;49.478;10.986;2023-02-12T11:44:17;100554.81;;;8.76;100.00
70815;BME280;58428;49.478;10.986;2023-02-12T11:46:48;100555.34;;;8.73;100.00
70815;BME280;58428;49.478;10.986;2023-02-12T11:49:20;100551.94;;;8.92;100.00
70815;BME280;58428;49.478;10.986;2023-02-12T11:51:47;100544.34;;;8.84;100.00
70815;BME280;58428;49.478;10.986;2023-02-12T11:54:19;100544.56;;;8.73;100.00
70815;BME280;58428;49.478;10.986;2023-02-12T11:56:46;100546.16;;;8.74;100.00
70815;BME280;58428;49.478;10.986;2023-02-12T11:59:35;100552.16;;;8.86;100.00
70815;BME280;58428;49.478;10.986;2023-02-12T12:02:17;100542.69;;;8.83;100.00
70815;BME280;58428;49.478;10.986;2023-02-12T12:04:48;100538.66;;;8.86;100.00
70815;BME280;58428;49.478;10.986;2023-02-12T12:07:31;100545.91;;;8.76;100.00
70815;BME280;58428;49.478;10.986;2023-02-12T12:10:09;100542.94;;;8.77;100.00
70815;BME280;58428;49.478;10.986;2023-02-12T12:15:21;100544.03;;;8.81;100.00
70815;BME280;58428;49.478;10.986;2023-02-12T12:18:20;100537.59;;;8.87;100.00
70815;BME280;58428;49.478;10.986;2023-02-12T12:21:19;100542.59;;;8.64;100.00
70815;BME280;58428;49.478;10.986;2023-02-12T12:23:59;100535.66;;;8.78;100.00
70815;BME280;58428;49.478;10.986;2023-02-12T12:26:29;100532.19;;;8.92;100.00
70815;BME280;58428;49.478;10.986;2023-02-12T12:29:23;100538.13;;;8.89;100.00
70815;BME280;58428;49.478;10.986;2023-02-12T12:31:58;100535.47;;;9.04;100.00
70815;BME280;58428;49.478;10.986;2023-02-12T12:34:26;100534.97;;;9.07;100.00
70815;BME280;58428;49.478;10.986;2023-02-12T12:40:58;100537.13;;;9.05;100.00
70815;BME280;58428;49.478;10.986;2023-02-12T12:46:45;100536.09;;;9.20;100.00
70815;BME280;58428;49.478;10.986;2023-02-12T13:00:30;100521.31;;;9.62;100.00
70815;BME280;58428;49.478;10.986;2023-02-12T13:17:14;100512.34;;;9.32;100.00
70815;BME280;58428;49.478;10.986;2023-02-12T13:20:46;100513.09;;;9.13;100.00
70815;BME280;58428;49.478;10.986;2023-02-12T13:23:21;100514.91;;;8.88;100.00
70815;BME280;58428;49.478;10.986;2023-02-12T13:28:38;100516.28;;;8.95;100.00
70815;BME280;58428;49.478;10.986;2023-02-12T13:31:09;100518.41;;;8.83;100.00
70815;BME280;58428;49.478;10.986;2023-02-12T13:33:46;100519.59;;;9.17;100.00
70815;BME280;58428;49.478;10.986;2023-02-12T13:36:13;100521.78;;;9.25;100.00
70815;BME280;58428;49.478;10.986;2023-02-12T13:41:09;100511.78;;;9.16;100.00
70815;BME280;58428;49.478;10.986;2023-02-12T13:49:52;100513.06;;;9.03;100.00
70815;BME280;58428;49.478;10.986;2023-02-12T13:52:26;100517.94;;;9.01;100.00
70815;BME280;58428;49.478;10.986;2023-02-12T13:55:25;100518.25;;;9.10;100.00
70815;BME280;58428;49.478;10.986;2023-02-12T14:01:00;100519.06;;;9.25;100.00
70815;BME280;58428;49.478;10.986;2023-02-12T14:03:30;100514.47;;;9.20;100.00
70815;BME280;58428;49.478;10.986;2023-02-12T14:06:15;100519.53;;;8.97;100.00
70815;BME280;58428;49.478;10.986;2023-02-12T14:09:08;100520.31;;;8.88;100.00
70815;BME280;58428;49.478;10.986;2023-02-12T14:11:46;100519.59;;;9.17;100.00
70815;BME280;58428;49.478;10.986;2023-02-12T14:14:30;100508.03;;;9.31;100.00
70815;BME280;58428;49.478;10.986;2023-02-12T14:16:57;100506.41;;;9.25;100.00
70815;BME280;58428;49.478;10.986;2023-02-12T14:28:05;100516.03;;;8.97;100.00
70815;BME280;58428;49.478;10.986;2023-02-12T14:30:36;100505.19;;;8.87;100.00
70815;BME280;58428;49.478;10.986;2023-02-12T14:33:28;100497.91;;;8.87;100.00
70815;BME280;58428;49.478;10.986;2023-02-12T14:36:38;100500.31;;;8.79;100.00
70815;BME280;58428;49.478;10.986;2023-02-12T14:41:45;100496.22;;;8.72;100.00
70815;BME280;58428;49.478;10.986;2023-02-12T14:46:51;100493.78;;;8.65;100.00
70815;BME280;58428;49.478;10.986;2023-02-12T14:49:37;100501.50;;;8.42;100.00
70815;BME280;58428;49.478;10.986;2023-02-12T14:52:17;100499.19;;;8.19;100.00
70815;BME280;58428;49.478;10.986;2023-02-12T14:54:44;100499.13;;;8.09;100.00
70815;BME280;58428;49.478;10.986;2023-02-12T14:59:45;100501.59;;;7.85;100.00
70815;BME280;58428;49.478;10.986;2023-02-12T15:02:38;100490.81;;;7.85;100.00
70815;BME280;58428;49.478;10.986;2023-02-12T15:05:13;100491.06;;;7.78;100.00
70815;BME280;58428;49.478;10.986;2023-02-12T15:07:43;100492.38;;;7.76;100.00
70815;BME280;58428;49.478;10.986;2023-02-12T15:10:14;100487.81;;;7.76;100.00
70815;BME280;58428;49.478;10.986;2023-02-12T15:12:46;100490.19;;;7.73;100.00
70815;BME280;58428;49.478;10.986;2023-02-12T15:15:32;100490.94;;;7.64;100.00